Laughlin Air Force Base
KDLF : now visible

Airfield :











YOU CAN JOIN US ON...

 
LOGIN :

Register | Disclaimer

   EN    FR    IT 

 









Legend :    VFR   Marginal VFR   IFR   Intensive IFR   Very Intensive IFR
Visi :
Ceiling :
>= 8 km
>= 3000ft
5 to 8 km
1000 to 3000 ft
1500m to 5 km
500 to 1000 ft
800 to 1500m
200 to 500 ft
< 800m
< 200 ft
Symbols :   Thunderstorms  Fog  Heavy snow  Heavy precipitations  Wind > 20 kt






- Airport Elevation : 1082 ft


KDLF - Laughlin Air Force Base

CURRENT METAR :
  • 110256Z AUTO 10008KT 10SM FEW050 22/19 A2990 RMK AO2 PK WND 15026/0158 SLP114 T02230185 52047 $

EXPIRED METARs :
  • 110156Z AUTO 14025G33KT 10SM SQ SCT030 SCT037 BKN049 25/19 A2986 RMK AO2 PK WND 14035/46 LTG DSNT S SLP100 T02530194 $
  • 110147Z AUTO 10013G21KT 10SM SQ SCT049 28/21 A2983 RMK AO2 LTG DSNT SE SLP089 $
  • 110056Z AUTO 11014KT 10SM SCT049 BKN060 30/21 A2980 RMK AO2 SLP079 T02960210 $

TAF AMD TAF KDLF
Valid from the 10 at 20:00 until the 12 at 01:00 UTC


102030Z 1020/1201 13009KT 9999 SCT040 QNH2980INS
BECMG 1020/1021 13015G25KT 9999 VCTS BKN030CB QNH2978INS
TEMPO 1021/1104 VRB40G50KT 4000 +TSRAGR BKN020CB
BECMG 1104/1105 11009KT 9999 NSW BKN014 QNH2986INS
BECMG 1109/1110 VRB06KT 9000 -SHRA SCT015 QNH2989INS
TEMPO 1112/1115 VRB20G30KT 6000 -TSRA OVC015CB
TEMPO 1119/1123 VRB25G35KT 4000 +TSRAGR BKN020CB TX33/1021Z TN21/1112Z LAST NO AMDS AFT 1020 NEXT 1111
KZHU FIR / North America



MET'MAP, your aeronautical weather chart ! - Copyright ORBIFLY December 2007 - Disclaimer

ORBIFLY MET'MAP TEAM :

Programming & Development : Alexandra Zaïnal
Concept & original design : Baudouin d'Aumeries
Assistance for programming : Marc-Olivier Méhu
Technical & hardware support : Manuel Goepfert

Contact : metmap@orbifly.com




SOURCES & CREDITS :

   NOAA       Earth
Advisory